sensor_id;sensor_type;location;lat;lon;timestamp;P1;durP1;ratioP1;P2;durP2;ratioP2
32236;SDS011;18726;44.732;10.550;2023-02-28T00:00:43;21.38;;;15.20;;
32236;SDS011;18726;44.732;10.550;2023-02-28T00:03:46;16.70;;;13.50;;
32236;SDS011;18726;44.732;10.550;2023-02-28T00:06:50;19.88;;;14.77;;
32236;SDS011;18726;44.732;10.550;2023-02-28T00:09:53;17.38;;;14.32;;
32236;SDS011;18726;44.732;10.550;2023-02-28T00:12:59;18.65;;;14.48;;
32236;SDS011;18726;44.732;10.550;2023-02-28T00:16:10;16.95;;;13.57;;
32236;SDS011;18726;44.732;10.550;2023-02-28T00:19:16;19.48;;;15.50;;
32236;SDS011;18726;44.732;10.550;2023-02-28T00:22:20;15.98;;;13.23;;
32236;SDS011;18726;44.732;10.550;2023-02-28T00:25:25;17.83;;;13.68;;
32236;SDS011;18726;44.732;10.550;2023-02-28T00:28:28;19.02;;;17.00;;
32236;SDS011;18726;44.732;10.550;2023-02-28T00:31:32;18.48;;;16.58;;
32236;SDS011;18726;44.732;10.550;2023-02-28T00:34:36;17.63;;;14.88;;
32236;SDS011;18726;44.732;10.550;2023-02-28T00:37:40;16.15;;;13.25;;
32236;SDS011;18726;44.732;10.550;2023-02-28T00:40:45;18.73;;;15.43;;
32236;SDS011;18726;44.732;10.550;2023-02-28T00:43:48;17.75;;;15.02;;
32236;SDS011;18726;44.732;10.550;2023-02-28T00:46:52;17.08;;;15.23;;
32236;SDS011;18726;44.732;10.550;2023-02-28T00:50:01;18.77;;;13.77;;
32236;SDS011;18726;44.732;10.550;2023-02-28T00:53:06;15.57;;;13.75;;
32236;SDS011;18726;44.732;10.550;2023-02-28T00:56:09;17.20;;;13.98;;
32236;SDS011;18726;44.732;10.550;2023-02-28T00:59:13;19.75;;;13.48;;
32236;SDS011;18726;44.732;10.550;2023-02-28T01:02:18;16.92;;;13.95;;
32236;SDS011;18726;44.732;10.550;2023-02-28T01:05:23;21.08;;;14.40;;
32236;SDS011;18726;44.732;10.550;2023-02-28T01:08:27;17.88;;;13.95;;
32236;SDS011;18726;44.732;10.550;2023-02-28T01:11:31;15.68;;;11.77;;
32236;SDS011;18726;44.732;10.550;2023-02-28T01:14:35;18.95;;;13.63;;
32236;SDS011;18726;44.732;10.550;2023-02-28T01:17:39;18.25;;;13.10;;
32236;SDS011;18726;44.732;10.550;2023-02-28T01:20:42;17.15;;;13.82;;
32236;SDS011;18726;44.732;10.550;2023-02-28T01:23:46;19.40;;;12.45;;
32236;SDS011;18726;44.732;10.550;2023-02-28T01:26:51;19.83;;;13.70;;
32236;SDS011;18726;44.732;10.550;2023-02-28T01:29:54;19.83;;;13.20;;
32236;SDS011;18726;44.732;10.550;2023-02-28T01:32:58;19.88;;;13.98;;
32236;SDS011;18726;44.732;10.550;2023-02-28T01:36:03;24.83;;;20.38;;
32236;SDS011;18726;44.732;10.550;2023-02-28T01:39:13;24.10;;;16.47;;
32236;SDS011;18726;44.732;10.550;2023-02-28T01:42:17;27.83;;;21.00;;
32236;SDS011;18726;44.732;10.550;2023-02-28T01:45:28;16.30;;;13.10;;
32236;SDS011;18726;44.732;10.550;2023-02-28T01:48:34;18.00;;;13.23;;
32236;SDS011;18726;44.732;10.550;2023-02-28T01:51:47;33.10;;;23.92;;
32236;SDS011;18726;44.732;10.550;2023-02-28T01:54:56;18.30;;;15.27;;
32236;SDS011;18726;44.732;10.550;2023-02-28T01:58:02;18.52;;;15.35;;
32236;SDS011;18726;44.732;10.550;2023-02-28T02:01:09;15.48;;;13.48;;
32236;SDS011;18726;44.732;10.550;2023-02-28T02:04:24;30.80;;;17.48;;
32236;SDS011;18726;44.732;10.550;2023-02-28T02:07:37;16.40;;;12.65;;
32236;SDS011;18726;44.732;10.550;2023-02-28T02:10:47;15.18;;;12.85;;
32236;SDS011;18726;44.732;10.550;2023-02-28T02:13:58;16.60;;;13.52;;
32236;SDS011;18726;44.732;10.550;2023-02-28T02:20:42;19.10;;;12.75;;
32236;SDS011;18726;44.732;10.550;2023-02-28T02:37:40;17.10;;;12.85;;
32236;SDS011;18726;44.732;10.550;2023-02-28T02:40:53;17.52;;;15.75;;
32236;SDS011;18726;44.732;10.550;2023-02-28T02:47:29;16.13;;;13.02;;
32236;SDS011;18726;44.732;10.550;2023-02-28T02:50:45;15.25;;;13.50;;
32236;SDS011;18726;44.732;10.550;2023-02-28T02:53:54;15.63;;;13.55;;
32236;SDS011;18726;44.732;10.550;2023-02-28T02:57:05;20.77;;;14.40;;
32236;SDS011;18726;44.732;10.550;2023-02-28T03:00:12;15.30;;;13.73;;
32236;SDS011;18726;44.732;10.550;2023-02-28T03:03:20;19.92;;;14.98;;
32236;SDS011;18726;44.732;10.550;2023-02-28T03:06:32;18.88;;;14.52;;
32236;SDS011;18726;44.732;10.550;2023-02-28T03:09:37;14.90;;;13.43;;
32236;SDS011;18726;44.732;10.550;2023-02-28T03:12:46;14.15;;;12.27;;
32236;SDS011;18726;44.732;10.550;2023-02-28T03:16:08;14.55;;;13.05;;
32236;SDS011;18726;44.732;10.550;2023-02-28T03:22:51;15.43;;;13.82;;
32236;SDS011;18726;44.732;10.550;2023-02-28T03:26:03;16.42;;;13.40;;
32236;SDS011;18726;44.732;10.550;2023-02-28T03:32:29;13.73;;;12.32;;
32236;SDS011;18726;44.732;10.550;2023-02-28T03:35:39;14.60;;;13.13;;
32236;SDS011;18726;44.732;10.550;2023-02-28T03:38:55;17.77;;;14.13;;
32236;SDS011;18726;44.732;10.550;2023-02-28T03:42:25;14.63;;;13.18;;
32236;SDS011;18726;44.732;10.550;2023-02-28T03:45:32;15.40;;;13.80;;
32236;SDS011;18726;44.732;10.550;2023-02-28T03:48:43;16.67;;;13.20;;
32236;SDS011;18726;44.732;10.550;2023-02-28T03:51:51;15.00;;;12.32;;
32236;SDS011;18726;44.732;10.550;2023-02-28T03:54:59;17.10;;;14.25;;
32236;SDS011;18726;44.732;10.550;2023-02-28T03:58:15;15.27;;;13.27;;
32236;SDS011;18726;44.732;10.550;2023-02-28T04:01:41;14.50;;;13.00;;
32236;SDS011;18726;44.732;10.550;2023-02-28T04:04:47;14.10;;;12.30;;
32236;SDS011;18726;44.732;10.550;2023-02-28T04:07:51;13.02;;;11.68;;
32236;SDS011;18726;44.732;10.550;2023-02-28T04:10:58;14.50;;;12.40;;
32236;SDS011;18726;44.732;10.550;2023-02-28T04:14:10;14.30;;;12.73;;
32236;SDS011;18726;44.732;10.550;2023-02-28T04:17:15;14.05;;;12.52;;
32236;SDS011;18726;44.732;10.550;2023-02-28T04:20:19;14.27;;;12.93;;
32236;SDS011;18726;44.732;10.550;2023-02-28T04:23:23;14.77;;;12.68;;
32236;SDS011;18726;44.732;10.550;2023-02-28T04:26:30;14.88;;;13.27;;
32236;SDS011;18726;44.732;10.550;2023-02-28T04:29:35;13.38;;;12.18;;
32236;SDS011;18726;44.732;10.550;2023-02-28T04:32:39;12.30;;;11.00;;
32236;SDS011;18726;44.732;10.550;2023-02-28T04:35:43;13.55;;;12.20;;
32236;SDS011;18726;44.732;10.550;2023-02-28T04:38:47;14.10;;;12.10;;
32236;SDS011;18726;44.732;10.550;2023-02-28T04:41:50;13.88;;;12.50;;
32236;SDS011;18726;44.732;10.550;2023-02-28T04:44:54;14.70;;;13.10;;
32236;SDS011;18726;44.732;10.550;2023-02-28T04:47:58;13.73;;;12.05;;
32236;SDS011;18726;44.732;10.550;2023-02-28T04:51:02;12.88;;;11.65;;
32236;SDS011;18726;44.732;10.550;2023-02-28T04:54:07;13.75;;;12.40;;
32236;SDS011;18726;44.732;10.550;2023-02-28T04:57:11;13.10;;;11.70;;
32236;SDS011;18726;44.732;10.550;2023-02-28T05:00:15;12.88;;;11.65;;
32236;SDS011;18726;44.732;10.550;2023-02-28T05:03:20;14.07;;;12.57;;
32236;SDS011;18726;44.732;10.550;2023-02-28T05:06:27;14.55;;;13.07;;
32236;SDS011;18726;44.732;10.550;2023-02-28T05:09:32;15.45;;;12.88;;
32236;SDS011;18726;44.732;10.550;2023-02-28T05:12:38;14.02;;;12.52;;
32236;SDS011;18726;44.732;10.550;2023-02-28T05:15:42;13.65;;;12.25;;
32236;SDS011;18726;44.732;10.550;2023-02-28T05:18:46;15.38;;;13.13;;
32236;SDS011;18726;44.732;10.550;2023-02-28T05:21:51;14.55;;;12.63;;
32236;SDS011;18726;44.732;10.550;2023-02-28T05:24:57;15.43;;;13.82;;
32236;SDS011;18726;44.732;10.550;2023-02-28T05:28:01;13.05;;;11.75;;
32236;SDS011;18726;44.732;10.550;2023-02-28T05:31:05;13.68;;;12.38;;
32236;SDS011;18726;44.732;10.550;2023-02-28T05:34:08;15.60;;;14.00;;
32236;SDS011;18726;44.732;10.550;2023-02-28T05:37:14;15.73;;;13.07;;
32236;SDS011;18726;44.732;10.550;2023-02-28T05:40:19;14.93;;;13.50;;
32236;SDS011;18726;44.732;10.550;2023-02-28T05:43:23;17.83;;;14.60;;
32236;SDS011;18726;44.732;10.550;2023-02-28T05:46:27;22.73;;;16.60;;
32236;SDS011;18726;44.732;10.550;2023-02-28T05:49:31;32.80;;;22.35;;
32236;SDS011;18726;44.732;10.550;2023-02-28T05:52:35;51.95;;;34.22;;
32236;SDS011;18726;44.732;10.550;2023-02-28T05:55:39;34.28;;;29.73;;
32236;SDS011;18726;44.732;10.550;2023-02-28T05:58:44;23.10;;;19.42;;
32236;SDS011;18726;44.732;10.550;2023-02-28T06:01:47;18.98;;;15.13;;
32236;SDS011;18726;44.732;10.550;2023-02-28T06:04:51;21.20;;;15.13;;
32236;SDS011;18726;44.732;10.550;2023-02-28T06:07:55;19.48;;;16.30;;
32236;SDS011;18726;44.732;10.550;2023-02-28T06:11:02;17.33;;;14.98;;
32236;SDS011;18726;44.732;10.550;2023-02-28T06:14:07;19.58;;;14.40;;
32236;SDS011;18726;44.732;10.550;2023-02-28T06:17:16;16.38;;;14.68;;
32236;SDS011;18726;44.732;10.550;2023-02-28T06:20:20;15.88;;;14.27;;
32236;SDS011;18726;44.732;10.550;2023-02-28T06:23:23;17.92;;;14.48;;
32236;SDS011;18726;44.732;10.550;2023-02-28T06:26:27;16.92;;;15.07;;
32236;SDS011;18726;44.732;10.550;2023-02-28T06:29:32;15.32;;;13.75;;
32236;SDS011;18726;44.732;10.550;2023-02-28T06:32:36;19.27;;;14.88;;
32236;SDS011;18726;44.732;10.550;2023-02-28T06:35:43;16.38;;;14.60;;
32236;SDS011;18726;44.732;10.550;2023-02-28T06:38:47;16.63;;;14.82;;
32236;SDS011;18726;44.732;10.550;2023-02-28T06:41:54;14.07;;;12.63;;
32236;SDS011;18726;44.732;10.550;2023-02-28T06:44:58;19.10;;;15.45;;
32236;SDS011;18726;44.732;10.550;2023-02-28T06:48:01;15.25;;;13.70;;
32236;SDS011;18726;44.732;10.550;2023-02-28T06:51:13;18.55;;;15.63;;
32236;SDS011;18726;44.732;10.550;2023-02-28T06:54:19;18.95;;;16.63;;
32236;SDS011;18726;44.732;10.550;2023-02-28T06:57:23;23.23;;;15.93;;
32236;SDS011;18726;44.732;10.550;2023-02-28T07:00:28;17.17;;;15.38;;
32236;SDS011;18726;44.732;10.550;2023-02-28T07:03:32;21.88;;;16.08;;
32236;SDS011;18726;44.732;10.550;2023-02-28T07:06:36;16.92;;;15.10;;
32236;SDS011;18726;44.732;10.550;2023-02-28T07:09:40;20.23;;;16.70;;
32236;SDS011;18726;44.732;10.550;2023-02-28T07:12:43;22.88;;;17.00;;
32236;SDS011;18726;44.732;10.550;2023-02-28T07:15:54;22.48;;;17.08;;
32236;SDS011;18726;44.732;10.550;2023-02-28T07:18:59;19.88;;;17.88;;
32236;SDS011;18726;44.732;10.550;2023-02-28T07:22:03;17.30;;;15.48;;
32236;SDS011;18726;44.732;10.550;2023-02-28T12:11:19;19.55;;;17.38;;
32236;SDS011;18726;44.732;10.550;2023-02-28T12:14:49;20.20;;;16.23;;
32236;SDS011;18726;44.732;10.550;2023-02-28T12:27:50;95.25;;;67.97;;
32236;SDS011;18726;44.732;10.550;2023-02-28T12:31:04;38.17;;;31.67;;
32236;SDS011;18726;44.732;10.550;2023-02-28T12:34:13;23.80;;;20.00;;
32236;SDS011;18726;44.732;10.550;2023-02-28T12:41:00;19.08;;;16.73;;
32236;SDS011;18726;44.732;10.550;2023-02-28T12:44:11;20.08;;;17.40;;
32236;SDS011;18726;44.732;10.550;2023-02-28T12:47:20;30.02;;;26.80;;
32236;SDS011;18726;44.732;10.550;2023-02-28T12:50:24;18.30;;;16.52;;
32236;SDS011;18726;44.732;10.550;2023-02-28T12:53:35;21.50;;;19.23;;
32236;SDS011;18726;44.732;10.550;2023-02-28T13:00:14;21.48;;;17.00;;
32236;SDS011;18726;44.732;10.550;2023-02-28T13:03:32;17.27;;;15.45;;
32236;SDS011;18726;44.732;10.550;2023-02-28T13:06:49;19.10;;;17.13;;
32236;SDS011;18726;44.732;10.550;2023-02-28T13:10:19;102.70;;;57.88;;
32236;SDS011;18726;44.732;10.550;2023-02-28T13:13:24;87.03;;;53.90;;
32236;SDS011;18726;44.732;10.550;2023-02-28T13:16:54;45.63;;;34.95;;
32236;SDS011;18726;44.732;10.550;2023-02-28T13:20:26;34.05;;;25.80;;
32236;SDS011;18726;44.732;10.550;2023-02-28T13:29:53;30.35;;;23.67;;
32236;SDS011;18726;44.732;10.550;2023-02-28T13:36:25;42.92;;;29.85;;
32236;SDS011;18726;44.732;10.550;2023-02-28T13:46:04;31.17;;;24.27;;
32236;SDS011;18726;44.732;10.550;2023-02-28T13:49:18;31.42;;;23.15;;
32236;SDS011;18726;44.732;10.550;2023-02-28T13:53:26;26.83;;;21.00;;
32236;SDS011;18726;44.732;10.550;2023-02-28T13:56:24;32.45;;;19.95;;
32236;SDS011;18726;44.732;10.550;2023-02-28T13:59:50;29.08;;;21.98;;
32236;SDS011;18726;44.732;10.550;2023-02-28T14:06:30;28.27;;;22.23;;
32236;SDS011;18726;44.732;10.550;2023-02-28T14:09:40;26.73;;;21.55;;
32236;SDS011;18726;44.732;10.550;2023-02-28T14:16:01;25.92;;;21.75;;
32236;SDS011;18726;44.732;10.550;2023-02-28T14:22:49;23.10;;;20.73;;
32236;SDS011;18726;44.732;10.550;2023-02-28T14:39:47;24.92;;;21.77;;
32236;SDS011;18726;44.732;10.550;2023-02-28T14:42:56;30.40;;;23.15;;
32236;SDS011;18726;44.732;10.550;2023-02-28T14:46:03;25.38;;;22.60;;
32236;SDS011;18726;44.732;10.550;2023-02-28T14:49:12;29.08;;;22.48;;
32236;SDS011;18726;44.732;10.550;2023-02-28T14:52:24;33.38;;;22.60;;
32236;SDS011;18726;44.732;10.550;2023-02-28T14:55:36;24.00;;;21.20;;
32236;SDS011;18726;44.732;10.550;2023-02-28T14:58:40;27.58;;;23.95;;
32236;SDS011;18726;44.732;10.550;2023-02-28T15:01:44;26.42;;;23.33;;
32236;SDS011;18726;44.732;10.550;2023-02-28T15:04:58;25.58;;;23.00;;
32236;SDS011;18726;44.732;10.550;2023-02-28T15:08:11;28.25;;;23.38;;
32236;SDS011;18726;44.732;10.550;2023-02-28T15:11:17;29.73;;;25.20;;
32236;SDS011;18726;44.732;10.550;2023-02-28T15:14:22;30.83;;;25.52;;
32236;SDS011;18726;44.732;10.550;2023-02-28T15:17:29;23.30;;;20.90;;
32236;SDS011;18726;44.732;10.550;2023-02-28T15:20:33;27.42;;;22.83;;
32236;SDS011;18726;44.732;10.550;2023-02-28T15:23:38;34.88;;;25.33;;
32236;SDS011;18726;44.732;10.550;2023-02-28T15:26:46;25.73;;;22.48;;
32236;SDS011;18726;44.732;10.550;2023-02-28T15:29:54;31.17;;;21.90;;
32236;SDS011;18726;44.732;10.550;2023-02-28T15:33:04;27.90;;;23.92;;
32236;SDS011;18726;44.732;10.550;2023-02-28T15:36:15;28.33;;;23.65;;
32236;SDS011;18726;44.732;10.550;2023-02-28T15:39:25;30.15;;;23.33;;
32236;SDS011;18726;44.732;10.550;2023-02-28T15:42:33;24.50;;;21.42;;
32236;SDS011;18726;44.732;10.550;2023-02-28T15:48:54;27.48;;;24.30;;
32236;SDS011;18726;44.732;10.550;2023-02-28T15:51:59;32.40;;;22.90;;
32236;SDS011;18726;44.732;10.550;2023-02-28T15:55:10;25.75;;;22.48;;
32236;SDS011;18726;44.732;10.550;2023-02-28T15:58:22;25.10;;;21.77;;
32236;SDS011;18726;44.732;10.550;2023-02-28T16:01:29;29.00;;;24.27;;
32236;SDS011;18726;44.732;10.550;2023-02-28T16:04:36;31.08;;;24.38;;
32236;SDS011;18726;44.732;10.550;2023-02-28T16:07:41;35.47;;;24.45;;
32236;SDS011;18726;44.732;10.550;2023-02-28T16:10:47;38.17;;;26.35;;
32236;SDS011;18726;44.732;10.550;2023-02-28T16:13:51;34.17;;;24.98;;
32236;SDS011;18726;44.732;10.550;2023-02-28T16:16:56;37.05;;;27.50;;
32236;SDS011;18726;44.732;10.550;2023-02-28T16:20:13;39.03;;;29.13;;
32236;SDS011;18726;44.732;10.550;2023-02-28T16:23:19;27.08;;;23.38;;
32236;SDS011;18726;44.732;10.550;2023-02-28T16:26:23;29.83;;;23.38;;
32236;SDS011;18726;44.732;10.550;2023-02-28T16:29:29;26.33;;;22.92;;
32236;SDS011;18726;44.732;10.550;2023-02-28T16:32:35;28.65;;;22.10;;
32236;SDS011;18726;44.732;10.550;2023-02-28T16:35:39;28.70;;;22.35;;
32236;SDS011;18726;44.732;10.550;2023-02-28T16:38:43;29.40;;;24.85;;
32236;SDS011;18726;44.732;10.550;2023-02-28T16:41:47;28.48;;;24.25;;
32236;SDS011;18726;44.732;10.550;2023-02-28T16:44:53;29.25;;;23.50;;
32236;SDS011;18726;44.732;10.550;2023-02-28T16:47:58;27.38;;;22.65;;
32236;SDS011;18726;44.732;10.550;2023-02-28T16:51:02;29.00;;;22.98;;
32236;SDS011;18726;44.732;10.550;2023-02-28T16:54:07;28.57;;;23.43;;
32236;SDS011;18726;44.732;10.550;2023-02-28T16:57:21;35.15;;;24.92;;
32236;SDS011;18726;44.732;10.550;2023-02-28T17:00:27;36.80;;;24.90;;
32236;SDS011;18726;44.732;10.550;2023-02-28T17:03:31;28.27;;;23.98;;
32236;SDS011;18726;44.732;10.550;2023-02-28T17:06:35;28.20;;;24.90;;
32236;SDS011;18726;44.732;10.550;2023-02-28T17:09:39;33.75;;;25.92;;
32236;SDS011;18726;44.732;10.550;2023-02-28T17:12:44;33.63;;;26.33;;
32236;SDS011;18726;44.732;10.550;2023-02-28T17:15:48;29.90;;;24.45;;
32236;SDS011;18726;44.732;10.550;2023-02-28T17:18:52;38.15;;;28.02;;
32236;SDS011;18726;44.732;10.550;2023-02-28T17:21:57;33.15;;;26.83;;
32236;SDS011;18726;44.732;10.550;2023-02-28T17:25:01;30.17;;;24.73;;
32236;SDS011;18726;44.732;10.550;2023-02-28T17:28:05;27.60;;;24.30;;
32236;SDS011;18726;44.732;10.550;2023-02-28T17:31:09;33.05;;;26.65;;
32236;SDS011;18726;44.732;10.550;2023-02-28T17:34:12;34.15;;;29.30;;
32236;SDS011;18726;44.732;10.550;2023-02-28T17:37:21;36.25;;;26.77;;
32236;SDS011;18726;44.732;10.550;2023-02-28T17:40:28;32.70;;;24.88;;
32236;SDS011;18726;44.732;10.550;2023-02-28T17:43:32;28.92;;;23.67;;
32236;SDS011;18726;44.732;10.550;2023-02-28T17:46:36;31.45;;;24.05;;
32236;SDS011;18726;44.732;10.550;2023-02-28T17:49:41;30.63;;;24.35;;
32236;SDS011;18726;44.732;10.550;2023-02-28T17:52:44;32.35;;;25.42;;
32236;SDS011;18726;44.732;10.550;2023-02-28T17:55:48;33.55;;;26.70;;
32236;SDS011;18726;44.732;10.550;2023-02-28T17:58:54;35.58;;;26.55;;
32236;SDS011;18726;44.732;10.550;2023-02-28T18:01:59;33.88;;;24.50;;
32236;SDS011;18726;44.732;10.550;2023-02-28T18:05:03;30.85;;;24.90;;
32236;SDS011;18726;44.732;10.550;2023-02-28T18:08:15;46.25;;;31.55;;
32236;SDS011;18726;44.732;10.550;2023-02-28T18:11:20;44.15;;;27.95;;
32236;SDS011;18726;44.732;10.550;2023-02-28T18:14:26;58.15;;;36.97;;
32236;SDS011;18726;44.732;10.550;2023-02-28T18:17:30;56.17;;;37.05;;
32236;SDS011;18726;44.732;10.550;2023-02-28T18:20:34;47.60;;;33.00;;
32236;SDS011;18726;44.732;10.550;2023-02-28T18:23:38;42.75;;;29.63;;
32236;SDS011;18726;44.732;10.550;2023-02-28T18:26:49;49.47;;;32.30;;
32236;SDS011;18726;44.732;10.550;2023-02-28T18:29:53;35.72;;;28.88;;
32236;SDS011;18726;44.732;10.550;2023-02-28T18:32:58;34.03;;;27.25;;
32236;SDS011;18726;44.732;10.550;2023-02-28T18:36:02;36.58;;;28.38;;
32236;SDS011;18726;44.732;10.550;2023-02-28T18:39:07;52.38;;;30.60;;
32236;SDS011;18726;44.732;10.550;2023-02-28T18:42:14;39.63;;;30.13;;
32236;SDS011;18726;44.732;10.550;2023-02-28T18:45:18;51.10;;;33.90;;
32236;SDS011;18726;44.732;10.550;2023-02-28T18:48:22;84.47;;;63.60;;
32236;SDS011;18726;44.732;10.550;2023-02-28T18:51:27;61.50;;;46.85;;
32236;SDS011;18726;44.732;10.550;2023-02-28T18:54:32;69.22;;;48.05;;
32236;SDS011;18726;44.732;10.550;2023-02-28T18:57:36;52.03;;;38.63;;
32236;SDS011;18726;44.732;10.550;2023-02-28T19:00:40;47.65;;;36.13;;
32236;SDS011;18726;44.732;10.550;2023-02-28T19:03:44;49.15;;;35.47;;
32236;SDS011;18726;44.732;10.550;2023-02-28T19:06:48;54.00;;;35.65;;
32236;SDS011;18726;44.732;10.550;2023-02-28T19:09:52;63.05;;;45.30;;
32236;SDS011;18726;44.732;10.550;2023-02-28T19:12:56;61.97;;;44.13;;
32236;SDS011;18726;44.732;10.550;2023-02-28T19:16:00;49.53;;;37.83;;
32236;SDS011;18726;44.732;10.550;2023-02-28T19:19:05;49.47;;;35.05;;
32236;SDS011;18726;44.732;10.550;2023-02-28T19:22:09;54.80;;;35.38;;
32236;SDS011;18726;44.732;10.550;2023-02-28T19:25:12;49.67;;;37.40;;
32236;SDS011;18726;44.732;10.550;2023-02-28T19:28:16;65.82;;;42.30;;
32236;SDS011;18726;44.732;10.550;2023-02-28T19:31:22;62.42;;;41.78;;
32236;SDS011;18726;44.732;10.550;2023-02-28T19:34:27;53.03;;;37.70;;
32236;SDS011;18726;44.732;10.550;2023-02-28T19:37:30;51.85;;;38.05;;
32236;SDS011;18726;44.732;10.550;2023-02-28T19:40:35;51.63;;;38.03;;
32236;SDS011;18726;44.732;10.550;2023-02-28T19:43:39;39.40;;;30.88;;
32236;SDS011;18726;44.732;10.550;2023-02-28T19:46:43;37.85;;;30.35;;
32236;SDS011;18726;44.732;10.550;2023-02-28T19:49:47;44.55;;;30.63;;
32236;SDS011;18726;44.732;10.550;2023-02-28T19:52:51;42.13;;;32.20;;
32236;SDS011;18726;44.732;10.550;2023-02-28T19:55:55;42.38;;;32.95;;
32236;SDS011;18726;44.732;10.550;2023-02-28T19:58:59;40.53;;;31.63;;
32236;SDS011;18726;44.732;10.550;2023-02-28T20:02:02;41.25;;;32.05;;
32236;SDS011;18726;44.732;10.550;2023-02-28T20:05:07;47.35;;;35.70;;
32236;SDS011;18726;44.732;10.550;2023-02-28T20:08:11;67.63;;;47.53;;
32236;SDS011;18726;44.732;10.550;2023-02-28T20:11:16;62.95;;;43.67;;
32236;SDS011;18726;44.732;10.550;2023-02-28T20:14:19;63.70;;;47.38;;
32236;SDS011;18726;44.732;10.550;2023-02-28T20:17:24;62.30;;;47.22;;
32236;SDS011;18726;44.732;10.550;2023-02-28T20:20:28;60.78;;;43.00;;
32236;SDS011;18726;44.732;10.550;2023-02-28T20:23:31;56.75;;;42.83;;
32236;SDS011;18726;44.732;10.550;2023-02-28T20:26:35;57.40;;;41.78;;
32236;SDS011;18726;44.732;10.550;2023-02-28T20:29:40;58.13;;;40.92;;
32236;SDS011;18726;44.732;10.550;2023-02-28T20:32:44;46.65;;;34.00;;
32236;SDS011;18726;44.732;10.550;2023-02-28T20:35:47;45.97;;;35.85;;
32236;SDS011;18726;44.732;10.550;2023-02-28T20:38:51;51.97;;;39.58;;
32236;SDS011;18726;44.732;10.550;2023-02-28T20:41:55;64.45;;;43.75;;
32236;SDS011;18726;44.732;10.550;2023-02-28T20:44:59;59.35;;;42.05;;
32236;SDS011;18726;44.732;10.550;2023-02-28T20:48:03;54.38;;;41.63;;
32236;SDS011;18726;44.732;10.550;2023-02-28T20:51:07;46.05;;;36.22;;
32236;SDS011;18726;44.732;10.550;2023-02-28T20:54:11;46.13;;;35.97;;
32236;SDS011;18726;44.732;10.550;2023-02-28T20:57:15;49.28;;;36.78;;
32236;SDS011;18726;44.732;10.550;2023-02-28T21:00:19;50.00;;;35.60;;
32236;SDS011;18726;44.732;10.550;2023-02-28T21:03:23;40.88;;;33.45;;
32236;SDS011;18726;44.732;10.550;2023-02-28T21:06:32;43.90;;;32.72;;
32236;SDS011;18726;44.732;10.550;2023-02-28T21:09:42;43.55;;;33.40;;
32236;SDS011;18726;44.732;10.550;2023-02-28T21:12:48;45.67;;;35.50;;
32236;SDS011;18726;44.732;10.550;2023-02-28T21:15:52;51.28;;;36.28;;
32236;SDS011;18726;44.732;10.550;2023-02-28T21:18:56;53.55;;;38.75;;
32236;SDS011;18726;44.732;10.550;2023-02-28T21:22:06;48.28;;;38.17;;
32236;SDS011;18726;44.732;10.550;2023-02-28T21:25:11;51.80;;;37.80;;
32236;SDS011;18726;44.732;10.550;2023-02-28T21:28:15;47.50;;;34.53;;
32236;SDS011;18726;44.732;10.550;2023-02-28T21:31:19;43.38;;;34.10;;
32236;SDS011;18726;44.732;10.550;2023-02-28T21:34:24;51.75;;;36.90;;
32236;SDS011;18726;44.732;10.550;2023-02-28T21:37:30;44.20;;;34.67;;
32236;SDS011;18726;44.732;10.550;2023-02-28T21:40:34;53.13;;;35.08;;
32236;SDS011;18726;44.732;10.550;2023-02-28T21:43:38;53.03;;;35.35;;
32236;SDS011;18726;44.732;10.550;2023-02-28T21:46:43;57.22;;;41.17;;
32236;SDS011;18726;44.732;10.550;2023-02-28T21:49:49;45.33;;;35.95;;
32236;SDS011;18726;44.732;10.550;2023-02-28T21:52:53;46.90;;;33.15;;
32236;SDS011;18726;44.732;10.550;2023-02-28T21:59:25;37.05;;;29.02;;
32236;SDS011;18726;44.732;10.550;2023-02-28T22:02:28;41.97;;;31.30;;
32236;SDS011;18726;44.732;10.550;2023-02-28T22:08:51;45.38;;;34.55;;
32236;SDS011;18726;44.732;10.550;2023-02-28T22:11:56;46.08;;;34.15;;
32236;SDS011;18726;44.732;10.550;2023-02-28T22:15:01;47.92;;;36.00;;
32236;SDS011;18726;44.732;10.550;2023-02-28T22:18:05;46.53;;;34.53;;
32236;SDS011;18726;44.732;10.550;2023-02-28T22:21:09;52.60;;;35.65;;
32236;SDS011;18726;44.732;10.550;2023-02-28T22:24:15;50.15;;;35.15;;
32236;SDS011;18726;44.732;10.550;2023-02-28T22:27:25;50.90;;;34.22;;
32236;SDS011;18726;44.732;10.550;2023-02-28T22:30:33;49.13;;;33.92;;
32236;SDS011;18726;44.732;10.550;2023-02-28T22:33:39;61.63;;;41.47;;
32236;SDS011;18726;44.732;10.550;2023-02-28T22:36:47;54.00;;;39.30;;
32236;SDS011;18726;44.732;10.550;2023-02-28T22:39:59;49.53;;;37.53;;
32236;SDS011;18726;44.732;10.550;2023-02-28T22:43:03;45.33;;;34.03;;
32236;SDS011;18726;44.732;10.550;2023-02-28T22:46:09;45.10;;;32.63;;
32236;SDS011;18726;44.732;10.550;2023-02-28T22:49:14;39.97;;;32.83;;
32236;SDS011;18726;44.732;10.550;2023-02-28T22:52:18;46.08;;;34.67;;
32236;SDS011;18726;44.732;10.550;2023-02-28T22:55:22;36.60;;;32.67;;
32236;SDS011;18726;44.732;10.550;2023-02-28T22:58:26;37.28;;;29.38;;
32236;SDS011;18726;44.732;10.550;2023-02-28T23:01:31;40.05;;;32.72;;
32236;SDS011;18726;44.732;10.550;2023-02-28T23:04:36;42.10;;;34.53;;
32236;SDS011;18726;44.732;10.550;2023-02-28T23:07:40;41.83;;;29.73;;
32236;SDS011;18726;44.732;10.550;2023-02-28T23:10:44;39.72;;;29.17;;
32236;SDS011;18726;44.732;10.550;2023-02-28T23:13:47;35.65;;;28.25;;
32236;SDS011;18726;44.732;10.550;2023-02-28T23:17:01;40.75;;;30.63;;
32236;SDS011;18726;44.732;10.550;2023-02-28T23:20:05;35.13;;;28.58;;
32236;SDS011;18726;44.732;10.550;2023-02-28T23:23:08;40.38;;;27.92;;
32236;SDS011;18726;44.732;10.550;2023-02-28T23:26:15;38.08;;;27.33;;
32236;SDS011;18726;44.732;10.550;2023-02-28T23:29:19;36.55;;;28.15;;
32236;SDS011;18726;44.732;10.550;2023-02-28T23:32:24;34.33;;;28.45;;
32236;SDS011;18726;44.732;10.550;2023-02-28T23:35:28;34.72;;;27.02;;
32236;SDS011;18726;44.732;10.550;2023-02-28T23:38:31;39.67;;;29.65;;
32236;SDS011;18726;44.732;10.550;2023-02-28T23:41:35;35.55;;;29.27;;
32236;SDS011;18726;44.732;10.550;2023-02-28T23:44:39;39.08;;;28.75;;
32236;SDS011;18726;44.732;10.550;2023-02-28T23:47:43;33.85;;;26.92;;
32236;SDS011;18726;44.732;10.550;2023-02-28T23:50:46;40.33;;;30.40;;
32236;SDS011;18726;44.732;10.550;2023-02-28T23:53:50;39.15;;;29.60;;
32236;SDS011;18726;44.732;10.550;2023-02-28T23:56:54;34.95;;;29.30;;
32236;SDS011;18726;44.732;10.550;2023-02-28T23:59:58;32.85;;;27.17;;
